sensor_id;sensor_type;location;lat;lon;timestamp;pressure;altitude;pressure_sealevel;temperature;humidity
17649;BME280;8943;51.110;-4.158;2022-09-09T00:01:23;100102.66;;;21.56;58.64
17649;BME280;8943;51.110;-4.158;2022-09-09T00:03:58;100107.91;;;21.57;58.36
17649;BME280;8943;51.110;-4.158;2022-09-09T00:06:30;100103.31;;;21.58;58.32
17649;BME280;8943;51.110;-4.158;2022-09-09T00:09:02;100097.25;;;21.56;58.14
17649;BME280;8943;51.110;-4.158;2022-09-09T00:11:39;100125.78;;;21.52;58.21
17649;BME280;8943;51.110;-4.158;2022-09-09T00:14:14;100103.72;;;21.55;58.13
17649;BME280;8943;51.110;-4.158;2022-09-09T00:16:50;100116.22;;;21.56;58.10
17649;BME280;8943;51.110;-4.158;2022-09-09T00:19:24;100114.34;;;21.56;58.19
17649;BME280;8943;51.110;-4.158;2022-09-09T00:22:07;100118.69;;;21.51;58.14
17649;BME280;8943;51.110;-4.158;2022-09-09T00:24:43;100109.34;;;21.53;58.07
17649;BME280;8943;51.110;-4.158;2022-09-09T00:27:21;100109.09;;;21.48;58.15
17649;BME280;8943;51.110;-4.158;2022-09-09T00:29:53;100124.53;;;21.48;57.66
17649;BME280;8943;51.110;-4.158;2022-09-09T00:32:22;100107.38;;;21.41;57.77
17649;BME280;8943;51.110;-4.158;2022-09-09T00:34:55;100112.94;;;21.32;57.71
17649;BME280;8943;51.110;-4.158;2022-09-09T00:37:25;100115.63;;;21.32;57.73
17649;BME280;8943;51.110;-4.158;2022-09-09T00:39:58;100123.50;;;21.27;57.65
17649;BME280;8943;51.110;-4.158;2022-09-09T00:42:36;100109.31;;;21.25;57.63
17649;BME280;8943;51.110;-4.158;2022-09-09T00:45:28;100117.00;;;21.22;57.70
17649;BME280;8943;51.110;-4.158;2022-09-09T00:48:06;100117.78;;;21.16;57.67
17649;BME280;8943;51.110;-4.158;2022-09-09T00:50:46;100127.53;;;21.10;57.96
17649;BME280;8943;51.110;-4.158;2022-09-09T00:53:31;100135.00;;;21.08;58.39
17649;BME280;8943;51.110;-4.158;2022-09-09T00:56:13;100130.84;;;21.05;58.09
17649;BME280;8943;51.110;-4.158;2022-09-09T00:58:54;100120.84;;;21.06;57.93
17649;BME280;8943;51.110;-4.158;2022-09-09T01:01:26;100139.16;;;21.04;57.89
17649;BME280;8943;51.110;-4.158;2022-09-09T01:03:55;100130.00;;;21.05;57.84
17649;BME280;8943;51.110;-4.158;2022-09-09T01:06:30;100130.78;;;20.99;57.85
17649;BME280;8943;51.110;-4.158;2022-09-09T01:09:07;100142.25;;;21.01;57.79
17649;BME280;8943;51.110;-4.158;2022-09-09T01:11:49;100144.50;;;20.97;57.40
17649;BME280;8943;51.110;-4.158;2022-09-09T01:14:29;100149.50;;;20.94;57.52
17649;BME280;8943;51.110;-4.158;2022-09-09T01:17:02;100144.41;;;20.84;57.76
17649;BME280;8943;51.110;-4.158;2022-09-09T01:19:40;100148.56;;;20.87;57.54
17649;BME280;8943;51.110;-4.158;2022-09-09T01:22:20;100152.69;;;20.82;57.58
17649;BME280;8943;51.110;-4.158;2022-09-09T01:27:56;100153.47;;;20.76;57.17
17649;BME280;8943;51.110;-4.158;2022-09-09T01:30:26;100164.69;;;20.73;57.33
17649;BME280;8943;51.110;-4.158;2022-09-09T01:32:57;100170.50;;;20.70;57.49
17649;BME280;8943;51.110;-4.158;2022-09-09T01:35:39;100163.00;;;20.72;57.35
17649;BME280;8943;51.110;-4.158;2022-09-09T01:38:10;100164.69;;;20.73;57.27
17649;BME280;8943;51.110;-4.158;2022-09-09T01:40:41;100174.09;;;20.77;57.38
17649;BME280;8943;51.110;-4.158;2022-09-09T01:43:11;100179.16;;;20.80;57.46
17649;BME280;8943;51.110;-4.158;2022-09-09T01:45:41;100173.47;;;20.75;57.59
17649;BME280;8943;51.110;-4.158;2022-09-09T01:48:10;100182.63;;;20.74;57.28
17649;BME280;8943;51.110;-4.158;2022-09-09T01:50:38;100189.31;;;20.78;57.34
17649;BME280;8943;51.110;-4.158;2022-09-09T01:53:08;100183.47;;;20.75;57.41
17649;BME280;8943;51.110;-4.158;2022-09-09T01:55:38;100177.22;;;20.74;57.54
17649;BME280;8943;51.110;-4.158;2022-09-09T01:58:20;100188.66;;;20.76;57.38
17649;BME280;8943;51.110;-4.158;2022-09-09T02:01:03;100185.50;;;20.73;57.46
17649;BME280;8943;51.110;-4.158;2022-09-09T02:03:35;100186.75;;;20.70;57.39
17649;BME280;8943;51.110;-4.158;2022-09-09T02:06:13;100177.78;;;20.70;57.66
17649;BME280;8943;51.110;-4.158;2022-09-09T02:08:49;100201.13;;;20.71;57.36
17649;BME280;8943;51.110;-4.158;2022-09-09T02:11:19;100206.06;;;20.67;57.70
17649;BME280;8943;51.110;-4.158;2022-09-09T02:13:53;100207.94;;;20.67;57.68
17649;BME280;8943;51.110;-4.158;2022-09-09T02:16:25;100211.94;;;20.71;57.67
17649;BME280;8943;51.110;-4.158;2022-09-09T02:18:59;100217.81;;;20.74;57.60
17649;BME280;8943;51.110;-4.158;2022-09-09T02:21:30;100211.84;;;20.79;57.62
17649;BME280;8943;51.110;-4.158;2022-09-09T02:24:04;100207.63;;;20.76;57.25
17649;BME280;8943;51.110;-4.158;2022-09-09T02:26:37;100208.94;;;20.80;57.09
17649;BME280;8943;51.110;-4.158;2022-09-09T02:29:12;100216.38;;;20.78;57.19
17649;BME280;8943;51.110;-4.158;2022-09-09T02:31:44;100219.44;;;20.90;56.81
17649;BME280;8943;51.110;-4.158;2022-09-09T02:34:17;100206.47;;;20.86;56.90
17649;BME280;8943;51.110;-4.158;2022-09-09T02:36:49;100219.25;;;20.92;56.83
17649;BME280;8943;51.110;-4.158;2022-09-09T02:39:21;100214.59;;;20.86;56.68
17649;BME280;8943;51.110;-4.158;2022-09-09T02:41:49;100220.53;;;20.96;56.39
17649;BME280;8943;51.110;-4.158;2022-09-09T02:44:19;100216.47;;;20.85;56.68
17649;BME280;8943;51.110;-4.158;2022-09-09T02:49:43;100219.44;;;20.90;56.33
17649;BME280;8943;51.110;-4.158;2022-09-09T02:52:14;100218.97;;;20.87;56.66
17649;BME280;8943;51.110;-4.158;2022-09-09T02:54:43;100215.63;;;20.85;56.87
17649;BME280;8943;51.110;-4.158;2022-09-09T02:57:14;100219.66;;;20.89;56.49
17649;BME280;8943;51.110;-4.158;2022-09-09T02:59:46;100224.41;;;20.87;56.36
17649;BME280;8943;51.110;-4.158;2022-09-09T03:02:14;100223.34;;;20.88;56.46
17649;BME280;8943;51.110;-4.158;2022-09-09T03:04:42;100229.81;;;20.87;56.45
17649;BME280;8943;51.110;-4.158;2022-09-09T03:07:11;100225.91;;;20.89;56.46
17649;BME280;8943;51.110;-4.158;2022-09-09T03:09:39;100230.47;;;20.89;56.64
17649;BME280;8943;51.110;-4.158;2022-09-09T03:12:09;100229.03;;;20.93;56.44
17649;BME280;8943;51.110;-4.158;2022-09-09T03:14:37;100233.03;;;20.97;56.59
17649;BME280;8943;51.110;-4.158;2022-09-09T03:17:07;100236.69;;;21.04;56.79
17649;BME280;8943;51.110;-4.158;2022-09-09T03:19:35;100229.19;;;21.06;56.55
17649;BME280;8943;51.110;-4.158;2022-09-09T03:22:04;100220.28;;;21.12;56.60
17649;BME280;8943;51.110;-4.158;2022-09-09T03:24:32;100224.69;;;21.13;56.92
17649;BME280;8943;51.110;-4.158;2022-09-09T03:27:00;100227.81;;;21.17;56.83
17649;BME280;8943;51.110;-4.158;2022-09-09T03:29:28;100227.25;;;21.21;57.01
17649;BME280;8943;51.110;-4.158;2022-09-09T03:31:56;100220.22;;;21.27;56.78
17649;BME280;8943;51.110;-4.158;2022-09-09T03:34:26;100226.47;;;21.27;56.76
17649;BME280;8943;51.110;-4.158;2022-09-09T03:36:54;100234.78;;;21.26;56.97
17649;BME280;8943;51.110;-4.158;2022-09-09T03:39:22;100226.88;;;21.24;57.03
17649;BME280;8943;51.110;-4.158;2022-09-09T03:41:51;100247.31;;;21.27;56.80
17649;BME280;8943;51.110;-4.158;2022-09-09T03:44:19;100233.97;;;21.25;56.99
17649;BME280;8943;51.110;-4.158;2022-09-09T03:46:47;100229.38;;;21.26;56.70
17649;BME280;8943;51.110;-4.158;2022-09-09T03:49:15;100242.28;;;21.24;56.91
17649;BME280;8943;51.110;-4.158;2022-09-09T03:51:44;100246.94;;;21.30;56.83
17649;BME280;8943;51.110;-4.158;2022-09-09T03:54:12;100237.78;;;21.31;56.39
17649;BME280;8943;51.110;-4.158;2022-09-09T03:56:41;100241.47;;;21.23;56.74
17649;BME280;8943;51.110;-4.158;2022-09-09T03:59:10;100238.75;;;21.23;56.65
17649;BME280;8943;51.110;-4.158;2022-09-09T04:01:38;100248.91;;;21.21;56.50
17649;BME280;8943;51.110;-4.158;2022-09-09T04:04:06;100253.13;;;21.24;56.55
17649;BME280;8943;51.110;-4.158;2022-09-09T04:06:35;100249.84;;;21.28;56.35
17649;BME280;8943;51.110;-4.158;2022-09-09T04:09:05;100251.25;;;21.24;56.26
17649;BME280;8943;51.110;-4.158;2022-09-09T04:11:33;100254.34;;;21.21;56.29
17649;BME280;8943;51.110;-4.158;2022-09-09T04:14:01;100251.00;;;21.19;56.01
17649;BME280;8943;51.110;-4.158;2022-09-09T04:16:30;100247.00;;;21.15;56.21
17649;BME280;8943;51.110;-4.158;2022-09-09T04:18:59;100251.38;;;21.16;56.11
17649;BME280;8943;51.110;-4.158;2022-09-09T04:21:28;100251.16;;;21.18;56.00
17649;BME280;8943;51.110;-4.158;2022-09-09T04:23:56;100257.47;;;21.18;55.94
17649;BME280;8943;51.110;-4.158;2022-09-09T04:26:25;100250.53;;;21.16;55.88
17649;BME280;8943;51.110;-4.158;2022-09-09T04:28:53;100252.22;;;21.17;56.20
17649;BME280;8943;51.110;-4.158;2022-09-09T04:31:23;100260.16;;;21.18;55.75
17649;BME280;8943;51.110;-4.158;2022-09-09T04:33:51;100252.28;;;21.23;55.45
17649;BME280;8943;51.110;-4.158;2022-09-09T04:36:19;100254.53;;;21.20;55.72
17649;BME280;8943;51.110;-4.158;2022-09-09T04:38:48;100259.38;;;21.24;55.32
17649;BME280;8943;51.110;-4.158;2022-09-09T04:41:16;100267.25;;;21.19;55.60
17649;BME280;8943;51.110;-4.158;2022-09-09T04:43:46;100260.59;;;21.22;55.33
17649;BME280;8943;51.110;-4.158;2022-09-09T04:46:15;100262.66;;;21.20;55.32
17649;BME280;8943;51.110;-4.158;2022-09-09T04:48:43;100257.88;;;21.22;55.05
17649;BME280;8943;51.110;-4.158;2022-09-09T04:51:13;100262.28;;;21.23;55.42
17649;BME280;8943;51.110;-4.158;2022-09-09T04:53:42;100257.50;;;21.25;55.65
17649;BME280;8943;51.110;-4.158;2022-09-09T04:56:11;100271.06;;;21.25;55.57
17649;BME280;8943;51.110;-4.158;2022-09-09T04:59:02;100296.56;;;21.30;55.76
17649;BME280;8943;51.110;-4.158;2022-09-09T05:01:36;100265.25;;;21.28;56.05
17649;BME280;8943;51.110;-4.158;2022-09-09T05:04:05;100265.06;;;21.29;56.13
17649;BME280;8943;51.110;-4.158;2022-09-09T05:06:38;100286.06;;;21.27;56.30
17649;BME280;8943;51.110;-4.158;2022-09-09T05:09:06;100275.19;;;21.21;56.51
17649;BME280;8943;51.110;-4.158;2022-09-09T05:11:36;100323.72;;;21.01;57.31
17649;BME280;8943;51.110;-4.158;2022-09-09T05:14:07;100298.78;;;20.69;57.25
17649;BME280;8943;51.110;-4.158;2022-09-09T05:17:31;100310.69;;;20.16;57.45
17649;BME280;8943;51.110;-4.158;2022-09-09T05:23:28;100290.78;;;19.33;59.75
17649;BME280;8943;51.110;-4.158;2022-09-09T05:26:21;100299.50;;;19.12;60.47
17649;BME280;8943;51.110;-4.158;2022-09-09T05:28:50;100305.81;;;19.04;60.35
17649;BME280;8943;51.110;-4.158;2022-09-09T05:31:24;100308.06;;;18.93;60.63
17649;BME280;8943;51.110;-4.158;2022-09-09T05:33:55;100315.06;;;18.79;60.43
17649;BME280;8943;51.110;-4.158;2022-09-09T05:36:23;100313.25;;;18.71;60.69
17649;BME280;8943;51.110;-4.158;2022-09-09T05:38:51;100305.31;;;18.62;60.91
17649;BME280;8943;51.110;-4.158;2022-09-09T05:41:21;100312.44;;;18.55;61.40
17649;BME280;8943;51.110;-4.158;2022-09-09T05:43:50;100311.13;;;18.50;61.66
17649;BME280;8943;51.110;-4.158;2022-09-09T05:46:19;100318.69;;;18.55;61.49
17649;BME280;8943;51.110;-4.158;2022-09-09T05:48:51;100319.84;;;18.52;61.55
17649;BME280;8943;51.110;-4.158;2022-09-09T05:51:21;100319.22;;;18.50;61.41
17649;BME280;8943;51.110;-4.158;2022-09-09T05:53:50;100325.44;;;18.51;61.71
17649;BME280;8943;51.110;-4.158;2022-09-09T05:56:20;100326.47;;;18.50;61.82
17649;BME280;8943;51.110;-4.158;2022-09-09T05:58:50;100319.84;;;18.52;61.99
17649;BME280;8943;51.110;-4.158;2022-09-09T06:01:22;100320.88;;;18.51;62.31
17649;BME280;8943;51.110;-4.158;2022-09-09T06:03:52;100321.69;;;18.60;61.65
17649;BME280;8943;51.110;-4.158;2022-09-09T06:06:22;100313.91;;;18.65;61.98
17649;BME280;8943;51.110;-4.158;2022-09-09T06:08:52;100309.53;;;18.72;61.76
17649;BME280;8943;51.110;-4.158;2022-09-09T06:11:22;100309.19;;;18.75;61.90
17649;BME280;8943;51.110;-4.158;2022-09-09T06:13:50;100309.69;;;18.79;61.90
17649;BME280;8943;51.110;-4.158;2022-09-09T06:16:22;100310.31;;;18.89;62.01
17649;BME280;8943;51.110;-4.158;2022-09-09T06:18:52;100310.09;;;18.99;61.88
17649;BME280;8943;51.110;-4.158;2022-09-09T06:21:23;100311.03;;;19.06;62.01
17649;BME280;8943;51.110;-4.158;2022-09-09T06:23:52;100315.72;;;19.12;62.27
17649;BME280;8943;51.110;-4.158;2022-09-09T06:26:27;100314.94;;;19.26;62.23
17649;BME280;8943;51.110;-4.158;2022-09-09T06:28:57;100315.56;;;19.37;62.20
17649;BME280;8943;51.110;-4.158;2022-09-09T06:31:26;100330.34;;;19.49;62.24
17649;BME280;8943;51.110;-4.158;2022-09-09T06:33:59;100331.97;;;19.58;62.22
17649;BME280;8943;51.110;-4.158;2022-09-09T06:36:28;100339.69;;;19.69;62.04
17649;BME280;8943;51.110;-4.158;2022-09-09T06:38:58;100342.31;;;19.77;61.94
17649;BME280;8943;51.110;-4.158;2022-09-09T06:41:28;100341.09;;;19.80;61.83
17649;BME280;8943;51.110;-4.158;2022-09-09T06:43:57;100346.69;;;19.78;61.91
17649;BME280;8943;51.110;-4.158;2022-09-09T06:46:27;100349.41;;;19.78;61.73
17649;BME280;8943;51.110;-4.158;2022-09-09T06:48:59;100346.41;;;19.73;61.89
17649;BME280;8943;51.110;-4.158;2022-09-09T06:51:28;100345.56;;;19.73;61.88
17649;BME280;8943;51.110;-4.158;2022-09-09T06:53:58;100350.59;;;19.76;62.28
17649;BME280;8943;51.110;-4.158;2022-09-09T06:56:27;100349.22;;;19.80;62.06
17649;BME280;8943;51.110;-4.158;2022-09-09T06:58:57;100349.03;;;19.82;62.34
17649;BME280;8943;51.110;-4.158;2022-09-09T07:01:29;100360.81;;;19.89;62.42
17649;BME280;8943;51.110;-4.158;2022-09-09T07:04:00;100355.34;;;19.97;62.36
17649;BME280;8943;51.110;-4.158;2022-09-09T07:06:30;100349.53;;;20.00;62.40
17649;BME280;8943;51.110;-4.158;2022-09-09T07:08:59;100348.44;;;20.09;62.40
17649;BME280;8943;51.110;-4.158;2022-09-09T07:11:29;100352.47;;;20.13;62.39
17649;BME280;8943;51.110;-4.158;2022-09-09T07:13:58;100351.56;;;20.21;62.33
17649;BME280;8943;51.110;-4.158;2022-09-09T07:16:27;100347.28;;;20.26;62.45
17649;BME280;8943;51.110;-4.158;2022-09-09T07:18:56;100364.81;;;20.30;62.66
17649;BME280;8943;51.110;-4.158;2022-09-09T07:21:27;100365.47;;;20.32;62.50
17649;BME280;8943;51.110;-4.158;2022-09-09T07:23:56;100359.78;;;20.42;62.42
17649;BME280;8943;51.110;-4.158;2022-09-09T07:26:27;100370.91;;;20.47;62.43
17649;BME280;8943;51.110;-4.158;2022-09-09T07:28:56;100362.25;;;20.52;62.45
17649;BME280;8943;51.110;-4.158;2022-09-09T07:31:26;100368.56;;;20.59;62.56
17649;BME280;8943;51.110;-4.158;2022-09-09T07:33:54;100370.56;;;20.65;62.28
17649;BME280;8943;51.110;-4.158;2022-09-09T07:36:26;100376.41;;;20.69;62.28
17649;BME280;8943;51.110;-4.158;2022-09-09T07:39:05;100375.22;;;20.71;62.52
17649;BME280;8943;51.110;-4.158;2022-09-09T07:41:42;100375.50;;;20.76;62.54
17649;BME280;8943;51.110;-4.158;2022-09-09T07:44:13;100376.41;;;20.83;62.36
17649;BME280;8943;51.110;-4.158;2022-09-09T07:46:42;100378.94;;;20.85;62.39
17649;BME280;8943;51.110;-4.158;2022-09-09T07:49:12;100385.84;;;20.88;62.26
17649;BME280;8943;51.110;-4.158;2022-09-09T07:51:44;100382.50;;;20.86;62.22
17649;BME280;8943;51.110;-4.158;2022-09-09T07:54:20;100378.41;;;20.90;61.96
17649;BME280;8943;51.110;-4.158;2022-09-09T07:56:51;100385.84;;;20.88;62.00
17649;BME280;8943;51.110;-4.158;2022-09-09T07:59:19;100388.56;;;20.88;62.08
17649;BME280;8943;51.110;-4.158;2022-09-09T08:01:50;100388.00;;;20.92;62.14
17649;BME280;8943;51.110;-4.158;2022-09-09T08:04:22;100399.28;;;20.96;62.44
17649;BME280;8943;51.110;-4.158;2022-09-09T08:07:06;100393.78;;;21.04;62.38
17649;BME280;8943;51.110;-4.158;2022-09-09T08:09:34;100383.66;;;21.13;62.16
17649;BME280;8943;51.110;-4.158;2022-09-09T08:12:03;100390.66;;;21.22;62.18
17649;BME280;8943;51.110;-4.158;2022-09-09T08:14:33;100392.44;;;21.29;62.34
17649;BME280;8943;51.110;-4.158;2022-09-09T08:17:01;100402.16;;;21.39;62.10
17649;BME280;8943;51.110;-4.158;2022-09-09T08:19:29;100405.75;;;21.46;62.04
17649;BME280;8943;51.110;-4.158;2022-09-09T08:22:02;100406.69;;;21.53;61.92
17649;BME280;8943;51.110;-4.158;2022-09-09T08:24:33;100405.00;;;21.52;61.38
17649;BME280;8943;51.110;-4.158;2022-09-09T08:27:02;100409.22;;;21.54;61.54
17649;BME280;8943;51.110;-4.158;2022-09-09T08:29:30;100417.34;;;21.54;61.25
17649;BME280;8943;51.110;-4.158;2022-09-09T08:31:59;100415.00;;;21.51;61.06
17649;BME280;8943;51.110;-4.158;2022-09-09T08:34:28;100418.19;;;21.55;60.92
17649;BME280;8943;51.110;-4.158;2022-09-09T08:36:57;100426.84;;;21.65;61.17
17649;BME280;8943;51.110;-4.158;2022-09-09T08:39:26;100414.84;;;21.74;61.27
17649;BME280;8943;51.110;-4.158;2022-09-09T08:45:12;100434.06;;;22.01;61.35
17649;BME280;8943;51.110;-4.158;2022-09-09T08:47:54;100431.97;;;22.18;60.63
17649;BME280;8943;51.110;-4.158;2022-09-09T08:50:30;100429.97;;;22.26;59.53
17649;BME280;8943;51.110;-4.158;2022-09-09T08:53:02;100433.53;;;22.27;58.75
17649;BME280;8943;51.110;-4.158;2022-09-09T08:55:39;100437.19;;;22.19;58.67
17649;BME280;8943;51.110;-4.158;2022-09-09T08:58:16;100437.19;;;22.19;58.40
17649;BME280;8943;51.110;-4.158;2022-09-09T09:00:58;100434.66;;;22.11;57.92
17649;BME280;8943;51.110;-4.158;2022-09-09T09:03:35;100451.47;;;22.06;58.37
17649;BME280;8943;51.110;-4.158;2022-09-09T09:06:18;100447.94;;;22.06;58.52
17649;BME280;8943;51.110;-4.158;2022-09-09T09:08:56;100463.78;;;22.09;58.13
17649;BME280;8943;51.110;-4.158;2022-09-09T09:11:35;100461.91;;;22.09;57.67
17649;BME280;8943;51.110;-4.158;2022-09-09T09:14:09;100458.38;;;22.09;57.44
17649;BME280;8943;51.110;-4.158;2022-09-09T09:16:47;100464.38;;;22.04;57.33
17649;BME280;8943;51.110;-4.158;2022-09-09T09:19:17;100470.00;;;22.03;57.42
17649;BME280;8943;51.110;-4.158;2022-09-09T09:21:49;100479.34;;;22.00;57.38
17649;BME280;8943;51.110;-4.158;2022-09-09T09:24:23;100479.19;;;22.02;57.54
17649;BME280;8943;51.110;-4.158;2022-09-09T09:26:58;100488.16;;;22.02;57.44
17649;BME280;8943;51.110;-4.158;2022-09-09T09:29:27;100473.09;;;22.00;57.43
17649;BME280;8943;51.110;-4.158;2022-09-09T09:31:58;100491.25;;;21.99;57.08
17649;BME280;8943;51.110;-4.158;2022-09-09T09:34:29;100483.44;;;21.90;58.01
17649;BME280;8943;51.110;-4.158;2022-09-09T09:36:58;100476.91;;;21.84;58.31
17649;BME280;8943;51.110;-4.158;2022-09-09T09:39:29;100491.31;;;21.84;58.29
17649;BME280;8943;51.110;-4.158;2022-09-09T09:42:19;100515.97;;;21.90;58.12
17649;BME280;8943;51.110;-4.158;2022-09-09T09:44:49;100494.41;;;21.81;58.09
17649;BME280;8943;51.110;-4.158;2022-09-09T09:47:20;100521.91;;;21.78;58.28
17649;BME280;8943;51.110;-4.158;2022-09-09T09:49:53;100519.75;;;21.74;58.11
17649;BME280;8943;51.110;-4.158;2022-09-09T09:52:23;100519.31;;;21.70;57.67
17649;BME280;8943;51.110;-4.158;2022-09-09T09:54:52;100517.31;;;21.79;58.10
17649;BME280;8943;51.110;-4.158;2022-09-09T09:57:26;100533.50;;;21.87;57.87
17649;BME280;8943;51.110;-4.158;2022-09-09T10:00:02;100514.19;;;21.97;57.14
17649;BME280;8943;51.110;-4.158;2022-09-09T10:02:40;100531.38;;;22.04;57.11
17649;BME280;8943;51.110;-4.158;2022-09-09T10:05:15;100526.41;;;22.07;57.42
17649;BME280;8943;51.110;-4.158;2022-09-09T10:08:05;100538.91;;;22.23;56.89
17649;BME280;8943;51.110;-4.158;2022-09-09T10:10:53;100542.41;;;22.39;56.77
17649;BME280;8943;51.110;-4.158;2022-09-09T10:13:34;100521.00;;;22.50;56.75
17649;BME280;8943;51.110;-4.158;2022-09-09T10:16:21;100533.72;;;22.71;56.69
17649;BME280;8943;51.110;-4.158;2022-09-09T10:18:59;100522.19;;;22.91;56.59
17649;BME280;8943;51.110;-4.158;2022-09-09T10:22:04;100529.44;;;23.11;54.78
17649;BME280;8943;51.110;-4.158;2022-09-09T10:24:51;100539.69;;;23.09;54.65
17649;BME280;8943;51.110;-4.158;2022-09-09T10:27:33;100533.00;;;23.12;53.97
17649;BME280;8943;51.110;-4.158;2022-09-09T10:33:26;100537.34;;;23.06;53.58
17649;BME280;8943;51.110;-4.158;2022-09-09T10:36:02;100544.53;;;23.14;53.78
17649;BME280;8943;51.110;-4.158;2022-09-09T10:38:38;100544.09;;;23.17;53.75
17649;BME280;8943;51.110;-4.158;2022-09-09T10:41:16;100559.81;;;23.22;53.84
17649;BME280;8943;51.110;-4.158;2022-09-09T10:44:12;100554.03;;;23.31;53.77
17649;BME280;8943;51.110;-4.158;2022-09-09T10:47:03;100549.84;;;23.29;52.77
17649;BME280;8943;51.110;-4.158;2022-09-09T10:50:00;100557.50;;;23.19;53.02
17649;BME280;8943;51.110;-4.158;2022-09-09T10:52:51;100558.72;;;23.16;53.23
17649;BME280;8943;51.110;-4.158;2022-09-09T10:55:27;100553.31;;;23.16;52.63
17649;BME280;8943;51.110;-4.158;2022-09-09T10:58:05;100564.06;;;23.03;52.46
17649;BME280;8943;51.110;-4.158;2022-09-09T11:00:44;100566.75;;;22.96;52.65
17649;BME280;8943;51.110;-4.158;2022-09-09T11:03:38;100560.69;;;22.94;52.38
17649;BME280;8943;51.110;-4.158;2022-09-09T11:09:18;100561.06;;;22.91;52.19
17649;BME280;8943;51.110;-4.158;2022-09-09T11:11:52;100564.25;;;22.95;52.81
17649;BME280;8943;51.110;-4.158;2022-09-09T11:14:28;100556.22;;;23.15;53.46
17649;BME280;8943;51.110;-4.158;2022-09-09T11:17:06;100565.56;;;23.33;52.23
17649;BME280;8943;51.110;-4.158;2022-09-09T11:19:43;100571.84;;;23.41;52.33
17649;BME280;8943;51.110;-4.158;2022-09-09T11:22:26;100580.03;;;23.47;51.39
17649;BME280;8943;51.110;-4.158;2022-09-09T11:25:04;100583.88;;;23.53;51.37
17649;BME280;8943;51.110;-4.158;2022-09-09T11:27:40;100571.88;;;23.47;50.69
17649;BME280;8943;51.110;-4.158;2022-09-09T11:30:29;100572.88;;;23.33;50.92
17649;BME280;8943;51.110;-4.158;2022-09-09T11:33:51;100573.03;;;23.25;51.25
17649;BME280;8943;51.110;-4.158;2022-09-09T11:37:00;100589.56;;;23.30;52.26
17649;BME280;8943;51.110;-4.158;2022-09-09T11:40:30;100573.13;;;23.45;51.76
17649;BME280;8943;51.110;-4.158;2022-09-09T11:43:05;100574.56;;;23.41;51.35
17649;BME280;8943;51.110;-4.158;2022-09-09T11:45:58;100598.94;;;23.27;51.15
17649;BME280;8943;51.110;-4.158;2022-09-09T11:48:37;100594.28;;;23.15;51.69
17649;BME280;8943;51.110;-4.158;2022-09-09T11:51:28;100575.03;;;23.16;51.77
17649;BME280;8943;51.110;-4.158;2022-09-09T11:54:31;100599.13;;;23.19;52.02
17649;BME280;8943;51.110;-4.158;2022-09-09T11:57:32;100583.09;;;23.31;51.58
17649;BME280;8943;51.110;-4.158;2022-09-09T12:00:33;100579.38;;;23.38;51.30
17649;BME280;8943;51.110;-4.158;2022-09-09T12:03:02;100594.91;;;23.45;50.92
17649;BME280;8943;51.110;-4.158;2022-09-09T12:05:44;100581.91;;;23.40;51.37
17649;BME280;8943;51.110;-4.158;2022-09-09T12:08:26;100589.69;;;23.50;51.27
17649;BME280;8943;51.110;-4.158;2022-09-09T12:10:57;100593.63;;;23.47;51.35
17649;BME280;8943;51.110;-4.158;2022-09-09T12:13:32;100594.50;;;23.48;51.39
17649;BME280;8943;51.110;-4.158;2022-09-09T12:16:29;100597.22;;;23.48;50.71
17649;BME280;8943;51.110;-4.158;2022-09-09T12:19:15;100610.97;;;23.39;50.69
17649;BME280;8943;51.110;-4.158;2022-09-09T12:22:03;100588.16;;;23.41;51.54
17649;BME280;8943;51.110;-4.158;2022-09-09T12:24:40;100606.25;;;23.55;51.35
17649;BME280;8943;51.110;-4.158;2022-09-09T12:27:24;100599.25;;;23.67;50.57
17649;BME280;8943;51.110;-4.158;2022-09-09T12:30:15;100601.97;;;23.67;50.53
17649;BME280;8943;51.110;-4.158;2022-09-09T12:33:00;100610.63;;;23.56;50.40
17649;BME280;8943;51.110;-4.158;2022-09-09T12:35:53;100613.69;;;23.39;50.21
17649;BME280;8943;51.110;-4.158;2022-09-09T12:38:52;100605.59;;;23.18;50.98
17649;BME280;8943;51.110;-4.158;2022-09-09T12:41:24;100618.66;;;23.08;51.22
17649;BME280;8943;51.110;-4.158;2022-09-09T12:44:03;100617.53;;;22.96;51.70
17649;BME280;8943;51.110;-4.158;2022-09-09T12:46:48;100615.94;;;23.08;51.62
17649;BME280;8943;51.110;-4.158;2022-09-09T12:49:31;100633.63;;;23.19;51.39
17649;BME280;8943;51.110;-4.158;2022-09-09T12:52:03;100612.53;;;23.27;51.08
17649;BME280;8943;51.110;-4.158;2022-09-09T12:54:47;100616.56;;;23.31;50.94
17649;BME280;8943;51.110;-4.158;2022-09-09T12:57:24;100633.47;;;23.27;51.10
17649;BME280;8943;51.110;-4.158;2022-09-09T13:00:08;100627.50;;;23.10;51.22
17649;BME280;8943;51.110;-4.158;2022-09-09T13:02:52;100636.94;;;22.71;52.47
17649;BME280;8943;51.110;-4.158;2022-09-09T13:05:26;100645.56;;;22.39;53.84
17649;BME280;8943;51.110;-4.158;2022-09-09T13:08:02;100631.69;;;22.12;55.01
17649;BME280;8943;51.110;-4.158;2022-09-09T13:10:44;100640.13;;;21.88;55.47
17649;BME280;8943;51.110;-4.158;2022-09-09T13:13:35;100626.66;;;21.50;57.16
17649;BME280;8943;51.110;-4.158;2022-09-09T13:19:19;100633.59;;;21.15;58.96
17649;BME280;8943;51.110;-4.158;2022-09-09T13:21:54;100626.94;;;21.17;59.71
17649;BME280;8943;51.110;-4.158;2022-09-09T13:24:28;100627.53;;;21.27;59.96
17649;BME280;8943;51.110;-4.158;2022-09-09T13:26:58;100632.91;;;21.50;60.07
17649;BME280;8943;51.110;-4.158;2022-09-09T13:29:50;100642.38;;;21.69;59.90
17649;BME280;8943;51.110;-4.158;2022-09-09T13:32:27;100625.53;;;21.89;59.52
17649;BME280;8943;51.110;-4.158;2022-09-09T13:38:56;100644.41;;;21.97;57.06
17649;BME280;8943;51.110;-4.158;2022-09-09T13:41:30;100635.06;;;21.84;57.24
17649;BME280;8943;51.110;-4.158;2022-09-09T13:44:04;100654.53;;;21.73;57.87
17649;BME280;8943;51.110;-4.158;2022-09-09T13:49:38;100641.88;;;21.36;58.98
17649;BME280;8943;51.110;-4.158;2022-09-09T13:55:05;100657.84;;;21.08;60.24
17649;BME280;8943;51.110;-4.158;2022-09-09T14:00:20;100646.56;;;20.81;61.08
17649;BME280;8943;51.110;-4.158;2022-09-09T14:02:53;100636.47;;;20.75;61.78
17649;BME280;8943;51.110;-4.158;2022-09-09T14:05:32;100635.44;;;20.76;62.42